Time;durP1;ratioP1;P1;durP2;ratioP2;P2;SDS_P1;SDS_P2;PMS_P1;PMS_P2;Temp;Humidity;BMP_temperature;BMP_pressure;BME280_temperature;BME280_humidity;BME280_pressure;Samples;Min_cycle;Max_cycle;Signal;HPM_P1;HPM_P2
2021/08/06 00:01:40;;;;;;;5.00;2.87;;;;;;;17.15;84.07;93302.84;1707611;83;21171;-55
2021/08/06 00:04:06;;;;;;;3.85;2.95;;;;;;;17.14;84.24;93281.89;1683321;83;21092;-54
2021/08/06 00:06:33;;;;;;;3.70;2.83;;;;;;;17.13;84.39;93272.05;1679198;83;21504;-54
2021/08/06 00:09:01;;;;;;;7.05;3.30;;;;;;;17.14;84.19;93284.05;1699819;83;21043;-54
2021/08/06 00:11:31;;;;;;;3.47;3.00;;;;;;;17.22;83.72;93279.39;1692488;83;21241;-54
2021/08/06 00:13:58;;;;;;;4.85;2.30;;;;;;;17.32;83.38;93277.72;1703635;83;21110;-54
2021/08/06 00:16:27;;;;;;;4.15;2.60;;;;;;;17.43;83.03;93273.44;1693108;83;21045;-54
2021/08/06 00:18:54;;;;;;;3.30;2.62;;;;;;;17.51;82.34;93271.58;1684743;83;21472;-53
2021/08/06 00:21:21;;;;;;;4.42;2.98;;;;;;;17.58;81.72;93264.63;1709978;83;21060;-54
2021/08/06 00:23:47;;;;;;;4.33;2.92;;;;;;;17.67;81.16;93274.00;1664532;83;21449;-54
2021/08/06 00:26:14;;;;;;;4.70;2.60;;;;;;;17.75;80.99;93267.92;1697899;83;21158;-53
2021/08/06 00:28:41;;;;;;;3.67;2.50;;;;;;;17.82;80.59;93260.38;1691067;83;21025;-54
2021/08/06 00:31:08;;;;;;;6.60;3.22;;;;;;;17.84;79.91;93248.07;1698803;83;21020;-54
2021/08/06 00:33:36;;;;;;;7.65;2.55;;;;;;;17.88;79.30;93239.53;1711460;83;21473;-54
2021/08/06 00:36:04;;;;;;;5.25;2.45;;;;;;;17.92;78.89;93226.69;1690035;83;21012;-54
2021/08/06 00:38:31;;;;;;;5.28;2.50;;;;;;;17.94;78.71;93217.16;1693223;83;21787;-55
2021/08/06 00:40:59;;;;;;;6.90;2.40;;;;;;;17.92;78.96;93259.45;1674366;83;21021;-54
2021/08/06 00:43:26;;;;;;;3.17;2.83;;;;;;;17.87;78.88;93249.16;1704705;83;21019;-54
2021/08/06 00:45:53;;;;;;;2.85;2.40;;;;;;;17.88;78.92;93242.95;1685321;83;21571;-55
2021/08/06 00:48:24;;;;;;;3.15;2.70;;;;;;;17.90;78.88;93239.75;1698513;83;21567;-55
2021/08/06 00:50:54;;;;;;;3.85;2.50;;;;;;;17.96;78.61;93234.08;1671251;83;21091;-55
2021/08/06 00:53:21;;;;;;;2.42;2.22;;;;;;;18.01;78.39;93233.25;1711973;83;21007;-55
2021/08/06 00:55:49;;;;;;;3.05;2.35;;;;;;;18.05;76.85;93223.29;1700415;83;21499;-55
2021/08/06 00:58:17;;;;;;;2.55;2.35;;;;;;;18.15;76.22;93221.61;1696216;83;20996;-55
2021/08/06 01:00:48;;;;;;;4.03;2.27;;;;;;;18.23;76.21;93222.47;1686598;83;21535;-55
2021/08/06 01:03:25;;;;;;;5.15;2.70;;;;;;;18.27;76.11;93216.73;1671757;83;21145;-54
2021/08/06 01:06:36;;;;;;;3.35;3.05;;;;;;;18.29;75.98;93214.16;1685562;83;21444;-54
2021/08/06 01:09:41;;;;;;;3.25;2.58;;;;;;;18.29;76.00;93215.55;1672670;83;21076;-55
2021/08/06 01:12:12;;;;;;;5.78;3.10;;;;;;;18.25;76.34;93222.06;1707818;83;20968;-54
2021/08/06 01:14:41;;;;;;;8.33;3.83;;;;;;;18.25;76.48;93219.27;1703803;83;21111;-54
2021/08/06 01:17:10;;;;;;;5.15;2.62;;;;;;;18.25;76.67;93209.53;1705345;83;21151;-53
2021/08/06 01:20:05;;;;;;;7.28;3.42;;;;;;;18.23;77.02;93195.40;1711935;83;20971;-54
2021/08/06 01:22:51;;;;;;;2.62;2.42;;;;;;;18.20;77.34;93185.34;1709857;83;21110;-54
2021/08/06 01:25:47;;;;;;;4.97;2.47;;;;;;;18.21;75.95;93179.87;1682445;83;21420;-55
2021/08/06 01:28:20;;;;;;;2.85;2.42;;;;;;;18.25;76.00;93180.95;1690806;83;21432;-54
2021/08/06 01:30:48;;;;;;;5.57;2.73;;;;;;;18.26;75.86;93188.76;1712269;83;21149;-54
2021/08/06 01:33:15;;;;;;;6.33;2.65;;;;;;;18.28;75.47;93178.52;1713053;83;21416;-54
2021/08/06 01:35:42;;;;;;;4.30;2.62;;;;;;;18.27;75.74;93177.76;1676815;83;21102;-54
2021/08/06 01:38:11;;;;;;;3.25;2.50;;;;;;;18.26;75.40;93177.63;1680477;83;21073;-54
2021/08/06 01:41:05;;;;;;;5.67;2.47;;;;;;;18.27;75.71;93188.16;1696627;83;21008;-54
2021/08/06 01:43:43;;;;;;;3.47;2.20;;;;;;;18.20;76.44;93172.81;1701851;83;21105;-54
2021/08/06 01:46:15;;;;;;;7.37;2.72;;;;;;;18.15;76.74;93179.86;1705229;83;21114;-54
2021/08/06 01:48:46;;;;;;;6.47;3.00;;;;;;;18.07;77.14;93178.23;1663685;83;21067;-54
2021/08/06 01:51:15;;;;;;;6.67;2.67;;;;;;;18.03;77.53;93172.25;1685650;83;21029;-54
2021/08/06 01:53:45;;;;;;;6.00;3.25;;;;;;;17.97;77.82;93163.25;1657271;84;21202;-54
2021/08/06 01:56:18;;;;;;;3.80;2.60;;;;;;;17.96;77.67;93154.77;1655238;83;21953;-54
2021/08/06 01:58:51;;;;;;;2.95;2.45;;;;;;;17.95;77.65;93166.56;1685868;83;21048;-54
2021/08/06 02:01:18;;;;;;;5.00;3.05;;;;;;;17.93;78.01;93161.41;1697844;83;21417;-54
2021/08/06 02:03:49;;;;;;;5.33;2.60;;;;;;;17.91;78.11;93154.23;1689972;83;21556;-53
2021/08/06 02:06:20;;;;;;;3.22;2.47;;;;;;;17.88;78.17;93156.69;1699147;83;21055;-55
2021/08/06 02:08:48;;;;;;;5.17;2.75;;;;;;;17.87;78.17;93162.91;1711916;83;21335;-55
2021/08/06 02:11:19;;;;;;;6.05;2.47;;;;;;;17.88;78.31;93178.33;1675720;83;21543;-54
2021/08/06 02:13:51;;;;;;;3.55;2.90;;;;;;;17.86;78.17;93170.39;1690475;83;21012;-53
2021/08/06 02:16:18;;;;;;;5.50;3.83;;;;;;;17.81;78.34;93167.80;1703706;83;21005;-54
2021/08/06 02:18:48;;;;;;;9.48;4.87;;;;;;;17.79;78.86;93159.24;1693648;83;20977;-55
2021/08/06 02:21:22;;;;;;;5.55;3.20;;;;;;;17.81;79.15;93161.50;1705583;83;21095;-54
2021/08/06 02:23:51;;;;;;;4.50;2.90;;;;;;;17.83;79.08;93164.50;1704098;83;21115;-54
2021/08/06 02:26:19;;;;;;;3.52;3.15;;;;;;;17.80;79.01;93160.01;1704176;83;21429;-54
2021/08/06 02:28:50;;;;;;;4.42;2.90;;;;;;;17.75;79.04;93156.66;1689412;83;20973;-53
2021/08/06 02:31:18;;;;;;;4.20;2.77;;;;;;;17.73;79.28;93149.48;1659314;83;21012;-54
2021/08/06 02:33:47;;;;;;;3.75;2.67;;;;;;;17.73;79.77;93155.05;1690975;83;21178;-54
2021/08/06 02:36:16;;;;;;;3.35;3.05;;;;;;;17.73;79.69;93151.64;1699273;83;20969;-53
2021/08/06 02:38:44;;;;;;;3.87;2.80;;;;;;;17.77;79.74;93148.52;1698167;83;20972;-54
2021/08/06 02:41:11;;;;;;;6.12;2.65;;;;;;;17.78;79.82;93159.77;1696744;83;21032;-55
2021/08/06 02:43:40;;;;;;;5.10;2.83;;;;;;;17.76;80.04;93158.16;1702456;83;21016;-54
2021/08/06 02:46:08;;;;;;;3.40;2.75;;;;;;;17.80;80.09;93153.05;1701056;83;21142;-54
2021/08/06 02:48:36;;;;;;;8.25;3.10;;;;;;;17.81;80.30;93144.81;1663319;82;21040;-54
2021/08/06 02:51:02;;;;;;;6.17;4.50;;;;;;;17.82;79.92;93143.53;1707047;83;21001;-54
2021/08/06 02:53:29;;;;;;;7.10;3.85;;;;;;;17.84;79.07;93147.27;1696379;83;21611;-55
2021/08/06 02:55:56;;;;;;;14.95;6.62;;;;;;;17.90;79.21;93149.33;1654974;85;21072;-54
2021/08/06 02:58:25;;;;;;;8.75;5.30;;;;;;;17.95;78.97;93137.97;1702224;83;21182;-53
2021/08/06 03:00:52;;;;;;;4.20;3.27;;;;;;;17.98;78.11;93131.36;1672208;83;21125;-54
2021/08/06 03:03:19;;;;;;;5.35;3.20;;;;;;;18.01;77.49;93124.72;1692767;83;21438;-54
2021/08/06 03:05:48;;;;;;;4.35;3.00;;;;;;;18.06;77.04;93115.52;1699562;83;21083;-54
2021/08/06 03:08:14;;;;;;;5.78;2.90;;;;;;;18.12;76.87;93129.44;1691389;83;21506;-55
2021/08/06 03:10:42;;;;;;;4.50;3.35;;;;;;;18.18;76.01;93130.73;1692669;83;21135;-54
2021/08/06 03:13:09;;;;;;;4.10;2.67;;;;;;;18.25;75.42;93137.80;1700919;83;21009;-54
2021/08/06 03:15:35;;;;;;;4.85;2.87;;;;;;;18.29;75.42;93140.39;1711441;83;21147;-55
2021/08/06 03:18:02;;;;;;;3.10;2.40;;;;;;;18.33;74.96;93142.23;1712955;83;20992;-54
2021/08/06 03:20:30;;;;;;;4.35;2.50;;;;;;;18.41;74.68;93143.07;1713305;83;21498;-54
2021/08/06 03:22:59;;;;;;;2.80;2.55;;;;;;;18.49;74.82;93142.52;1685845;83;21449;-54
2021/08/06 03:25:26;;;;;;;5.53;2.67;;;;;;;18.49;72.92;93130.65;1700955;83;20944;-54
2021/08/06 03:27:55;;;;;;;4.95;2.60;;;;;;;18.58;71.33;93137.92;1699832;83;21055;-54
2021/08/06 03:30:24;;;;;;;2.52;2.30;;;;;;;18.72;70.80;93126.87;1680563;83;20973;-54
2021/08/06 03:32:50;;;;;;;6.42;2.40;;;;;;;18.83;70.22;93125.23;1690256;84;21570;-55
2021/08/06 03:35:17;;;;;;;6.08;2.58;;;;;;;18.93;70.09;93113.75;1683484;83;21106;-54
2021/08/06 03:37:45;;;;;;;3.05;2.20;;;;;;;19.00;69.74;93103.33;1695172;83;20965;-56
2021/08/06 03:40:13;;;;;;;8.83;2.42;;;;;;;19.07;68.87;93101.28;1688989;83;20972;-55
2021/08/06 03:42:41;;;;;;;14.90;4.95;;;;;;;19.15;68.57;93095.79;1663815;84;21075;-55
2021/08/06 03:45:11;;;;;;;4.47;2.95;;;;;;;19.20;69.04;93099.85;1698406;83;21185;-54
2021/08/06 03:47:39;;;;;;;39.42;5.95;;;;;;;19.21;69.69;93102.01;1686528;83;21142;-54
2021/08/06 03:50:09;;;;;;;8.03;3.37;;;;;;;19.20;69.87;93096.33;1689936;83;21120;-55
2021/08/06 03:52:36;;;;;;;5.03;2.52;;;;;;;19.18;70.18;93091.95;1674919;84;21274;-55
2021/08/06 03:55:04;;;;;;;6.17;2.27;;;;;;;19.16;70.55;93086.89;1706667;83;20984;-55
2021/08/06 03:57:32;;;;;;;6.37;3.10;;;;;;;19.10;70.19;93093.23;1704276;83;21008;-55
2021/08/06 03:59:59;;;;;;;3.67;2.52;;;;;;;19.10;70.41;93100.20;1700198;83;21821;-55
2021/08/06 04:02:26;;;;;;;7.62;2.77;;;;;;;19.11;70.37;93092.56;1708397;83;20952;-55
2021/08/06 04:04:52;;;;;;;3.70;2.58;;;;;;;19.11;70.45;93093.33;1703903;83;21531;-54
2021/08/06 04:07:19;;;;;;;3.92;2.10;;;;;;;19.11;70.37;93091.94;1685408;83;21068;-55
2021/08/06 04:09:46;;;;;;;4.85;2.20;;;;;;;19.13;69.60;93089.35;1709710;83;21073;-55
2021/08/06 04:12:12;;;;;;;3.05;2.05;;;;;;;19.19;68.83;93081.63;1715246;83;21134;-54
2021/08/06 04:14:39;;;;;;;8.83;2.58;;;;;;;19.25;68.82;93090.63;1699315;83;20996;-55
2021/08/06 04:17:07;;;;;;;4.12;2.08;;;;;;;19.31;68.28;93089.08;1705213;83;21066;-54
2021/08/06 04:19:34;;;;;;;14.10;3.17;;;;;;;19.35;68.10;93081.88;1706215;83;21492;-54
2021/08/06 04:22:02;;;;;;;16.25;3.30;;;;;;;19.40;67.98;93089.36;1703574;83;20984;-54
2021/08/06 04:24:28;;;;;;;4.37;2.00;;;;;;;19.45;68.02;93087.73;1674962;84;21105;-54
2021/08/06 04:26:57;;;;;;;7.92;2.30;;;;;;;19.48;67.82;93086.64;1675296;84;21005;-54
2021/08/06 04:29:24;;;;;;;4.50;1.87;;;;;;;19.49;67.65;93097.27;1695896;84;20977;-55
2021/08/06 04:31:51;;;;;;;2.60;1.57;;;;;;;19.54;66.49;93092.19;1703617;83;21055;-55
2021/08/06 04:34:17;;;;;;;4.97;2.77;;;;;;;19.60;66.36;93084.42;1705680;83;20976;-54
2021/08/06 04:36:44;;;;;;;2.15;1.70;;;;;;;19.66;66.33;93084.29;1713273;83;21755;-54
2021/08/06 04:39:11;;;;;;;3.62;1.90;;;;;;;19.70;66.64;93096.61;1692999;83;21000;-54
2021/08/06 04:41:38;;;;;;;8.60;2.25;;;;;;;19.76;66.78;93101.40;1699920;83;20973;-55
2021/08/06 04:44:05;;;;;;;2.17;1.70;;;;;;;19.80;66.52;93107.41;1703210;83;21123;-54
2021/08/06 04:46:32;;;;;;;5.28;1.67;;;;;;;19.81;66.97;93111.69;1686654;83;21070;-54
2021/08/06 04:48:59;;;;;;;2.98;1.40;;;;;;;19.82;66.89;93111.80;1684190;83;21105;-54
2021/08/06 04:51:28;;;;;;;2.50;1.22;;;;;;;19.82;66.55;93106.84;1703713;83;21452;-54
2021/08/06 04:53:56;;;;;;;5.50;1.52;;;;;;;19.81;66.30;93108.91;1693186;83;20973;-55
2021/08/06 04:56:24;;;;;;;7.78;1.60;;;;;;;19.79;66.59;93111.49;1707025;83;21000;-53
2021/08/06 04:58:51;;;;;;;4.92;1.65;;;;;;;19.74;67.08;93116.55;1697708;83;20965;-55
2021/08/06 05:01:18;;;;;;;5.75;1.65;;;;;;;19.72;67.05;93109.37;1685699;83;21939;-55
2021/08/06 05:03:45;;;;;;;2.25;1.72;;;;;;;19.71;67.06;93119.03;1685687;83;21840;-55
2021/08/06 05:06:13;;;;;;;4.53;1.45;;;;;;;19.73;67.36;93119.90;1699726;83;20968;-55
2021/08/06 05:08:46;;;;;;;1.50;1.40;;;;;;;19.78;67.22;93114.16;1700843;83;21023;-54
2021/08/06 05:11:11;;;;;;;4.70;1.60;;;;;;;19.84;67.08;93113.39;1679666;83;21135;-54
2021/08/06 05:13:38;;;;;;;3.75;1.47;;;;;;;19.93;67.18;93115.68;1695748;83;21159;-55
2021/08/06 05:16:06;;;;;;;7.17;1.87;;;;;;;20.02;66.63;93120.06;1707852;83;21024;-56
2021/08/06 05:18:36;;;;;;;4.95;1.47;;;;;;;20.10;66.46;93127.20;1698432;83;21020;-55
2021/08/06 05:21:03;;;;;;;14.58;2.10;;;;;;;20.20;65.89;93121.97;1687349;83;21020;-54
2021/08/06 05:23:30;;;;;;;2.30;1.30;;;;;;;20.31;65.63;93127.90;1694057;83;21100;-54
2021/08/06 05:25:57;;;;;;;3.08;1.75;;;;;;;20.38;64.37;93112.59;1687817;83;21227;-54
2021/08/06 05:28:25;;;;;;;3.15;2.85;;;;;;;20.46;64.14;93114.03;1691473;83;21060;-54
2021/08/06 05:30:53;;;;;;;2.52;1.67;;;;;;;20.56;63.70;93103.86;1712747;83;21051;-54
2021/08/06 05:33:19;;;;;;;2.17;1.65;;;;;;;20.70;63.04;93112.96;1686832;83;21067;-54
2021/08/06 05:35:48;;;;;;;1.70;1.60;;;;;;;20.85;61.75;93106.08;1684791;83;21432;-55
2021/08/06 05:38:15;;;;;;;2.33;1.50;;;;;;;21.02;61.03;93113.96;1670367;83;21147;-61
2021/08/06 05:40:43;;;;;;;3.52;1.60;;;;;;;21.19;59.64;93128.19;1683624;83;21063;-56
2021/08/06 05:43:11;;;;;;;3.30;1.95;;;;;;;21.33;59.44;93119.09;1685861;83;21092;-55
2021/08/06 05:45:38;;;;;;;1.55;1.40;;;;;;;21.49;59.80;93117.09;1674125;83;20989;-55
2021/08/06 05:48:07;;;;;;;3.47;1.95;;;;;;;21.64;59.55;93132.55;1695093;83;20997;-55
2021/08/06 05:50:40;;;;;;;2.12;1.45;;;;;;;21.72;58.70;93144.50;1691391;83;21144;-55
2021/08/06 05:53:08;;;;;;;2.85;2.20;;;;;;;21.67;58.38;93143.36;1693155;83;21060;-56
2021/08/06 05:55:35;;;;;;;2.77;1.75;;;;;;;21.56;58.76;93144.34;1668020;84;21110;-55
2021/08/06 05:58:03;;;;;;;2.22;1.37;;;;;;;21.42;59.89;93152.14;1687806;83;21138;-54
2021/08/06 06:00:30;;;;;;;3.95;1.37;;;;;;;21.31;60.04;93167.13;1707307;83;21099;-55
2021/08/06 06:02:59;;;;;;;1.90;1.30;;;;;;;21.20;60.80;93174.44;1703034;82;21228;-55
2021/08/06 06:05:34;;;;;;;2.58;1.70;;;;;;;21.07;60.80;93191.38;1668528;83;21056;-55
2021/08/06 06:08:01;;;;;;;2.52;1.30;;;;;;;20.91;60.66;93195.39;1676295;83;21036;-57
2021/08/06 06:10:29;;;;;;;3.87;1.52;;;;;;;20.80;60.76;93198.45;1696583;83;21031;-59
2021/08/06 06:12:56;;;;;;;2.92;1.45;;;;;;;20.66;60.40;93202.64;1678367;82;21017;-59
2021/08/06 06:15:23;;;;;;;1.95;1.45;;;;;;;20.52;60.60;93219.42;1687134;82;21103;-57
2021/08/06 06:17:50;;;;;;;3.37;1.45;;;;;;;20.41;60.83;93219.70;1693051;83;21094;-55
2021/08/06 06:20:18;;;;;;;3.17;1.87;;;;;;;20.35;61.07;93231.01;1668735;82;21137;-56
2021/08/06 06:22:45;;;;;;;1.52;1.20;;;;;;;20.35;61.02;93230.28;1655590;84;21121;-56
2021/08/06 06:25:13;;;;;;;3.92;2.12;;;;;;;20.36;60.62;93234.56;1641082;85;21074;-55
2021/08/06 06:28:02;;;;;;;6.40;1.80;;;;;;;20.37;60.93;93230.48;1629532;85;22253;-55
2021/08/06 06:30:33;;;;;;;1.80;1.30;;;;;;;20.43;60.58;93236.03;1640157;84;21198;-55
2021/08/06 06:33:02;;;;;;;3.40;1.25;;;;;;;20.50;59.78;93238.13;1698251;83;21020;-56
2021/08/06 06:35:31;;;;;;;22.95;3.77;;;;;;;20.56;59.74;93237.98;1653667;83;21061;-55
2021/08/06 06:37:59;;;;;;;3.17;1.75;;;;;;;20.65;59.88;93257.04;1690061;83;20986;-57
2021/08/06 06:40:27;;;;;;;6.95;1.77;;;;;;;20.75;59.00;93243.41;1707739;82;21125;-54
2021/08/06 06:42:55;;;;;;;3.70;1.57;;;;;;;20.80;58.43;93241.78;1701892;82;21107;-56
2021/08/06 06:45:22;;;;;;;14.40;2.65;;;;;;;20.87;57.44;93237.66;1694640;83;21062;-59
2021/08/06 06:47:52;;;;;;;10.28;1.90;;;;;;;20.93;57.87;93243.11;1643806;84;21069;-57
2021/08/06 06:50:27;;;;;;;10.05;2.17;;;;;;;21.00;57.40;93234.77;1643194;85;21082;-59
2021/08/06 06:52:54;;;;;;;3.77;1.42;;;;;;;21.08;57.06;93239.01;1634919;85;21151;-55
2021/08/06 06:55:21;;;;;;;2.15;1.57;;;;;;;21.06;56.08;93220.61;1643945;83;21538;-55
2021/08/06 06:57:51;;;;;;;5.45;2.50;;;;;;;21.02;56.17;93232.17;1640941;84;21141;-56
2021/08/06 07:00:22;;;;;;;1.95;1.57;;;;;;;21.05;56.62;93231.06;1702456;82;21062;-57
2021/08/06 07:02:49;;;;;;;8.15;2.20;;;;;;;21.11;56.25;93221.86;1685079;83;21066;-56
2021/08/06 07:05:16;;;;;;;3.15;1.60;;;;;;;21.13;56.04;93226.25;1701483;82;21131;-59
2021/08/06 07:07:43;;;;;;;6.78;3.30;;;;;;;21.15;55.90;93231.30;1687641;83;21050;-57
2021/08/06 07:10:11;;;;;;;1.30;1.20;;;;;;;21.13;55.25;93234.63;1692030;82;21029;-57
2021/08/06 07:12:40;;;;;;;2.00;1.50;;;;;;;21.15;55.64;93231.30;1679198;83;21097;-64
2021/08/06 07:15:09;;;;;;;6.78;4.08;;;;;;;21.18;55.32;93237.19;1677288;83;21115;-60
2021/08/06 07:17:37;;;;;;;5.97;2.35;;;;;;;21.22;55.13;93247.36;1695275;82;21098;-57
2021/08/06 07:20:07;;;;;;;2.72;1.50;;;;;;;21.23;54.62;93251.66;1699779;83;21058;-61
2021/08/06 07:22:35;;;;;;;7.60;3.30;;;;;;;21.21;54.18;93258.45;1707278;81;21116;-60
2021/08/06 07:25:06;;;;;;;10.78;3.90;;;;;;;21.19;54.38;93249.23;1694371;82;20997;-56
2021/08/06 07:27:33;;;;;;;1.67;1.57;;;;;;;21.15;54.43;93262.80;1667361;84;21627;-55
2021/08/06 07:30:04;;;;;;;2.33;1.00;;;;;;;21.13;53.54;93260.47;1690904;83;21252;-56
2021/08/06 07:32:34;;;;;;;1.10;1.00;;;;;;;21.09;54.21;93264.28;1683300;83;21053;-56
2021/08/06 07:35:01;;;;;;;4.30;1.70;;;;;;;21.13;54.69;93264.67;1685215;83;21083;-56
2021/08/06 07:37:28;;;;;;;5.42;2.12;;;;;;;21.18;54.89;93270.75;1691919;82;21154;-58
2021/08/06 07:39:55;;;;;;;2.33;2.08;;;;;;;21.18;54.37;93275.71;1682101;83;21125;-58
2021/08/06 07:42:22;;;;;;;2.25;1.07;;;;;;;21.17;54.29;93281.84;1686835;82;21103;-56
2021/08/06 07:44:49;;;;;;;2.58;1.42;;;;;;;21.13;53.56;93282.84;1708459;82;21119;-55
2021/08/06 07:47:16;;;;;;;2.47;2.05;;;;;;;21.08;54.30;93281.69;1725396;82;21070;-57
2021/08/06 07:49:43;;;;;;;5.87;1.40;;;;;;;21.03;53.75;93281.84;1642857;83;21070;-60
2021/08/06 07:52:11;;;;;;;2.35;1.20;;;;;;;21.00;53.51;93282.94;1703772;83;22276;-54
2021/08/06 07:54:42;;;;;;;3.80;1.27;;;;;;;20.99;54.11;93284.25;1699947;82;21847;-55
2021/08/06 07:57:10;;;;;;;2.50;0.90;;;;;;;20.95;53.71;93274.80;1695178;83;21245;-56
2021/08/06 07:59:38;;;;;;;5.08;1.27;;;;;;;20.88;53.52;93287.33;1686908;83;21040;-56
2021/08/06 08:02:07;;;;;;;5.05;2.90;;;;;;;20.82;54.16;93279.08;1698686;83;21038;-56
2021/08/06 08:04:36;;;;;;;2.55;1.25;;;;;;;20.80;53.70;93285.11;1689467;82;21574;-58
2021/08/06 08:07:05;;;;;;;4.92;1.20;;;;;;;20.78;53.22;93283.52;1698311;83;21109;-58
2021/08/06 08:09:34;;;;;;;9.63;1.45;;;;;;;20.78;53.51;93284.91;1684870;83;21172;-56
2021/08/06 08:12:02;;;;;;;4.08;1.35;;;;;;;20.81;53.79;93272.63;1678382;83;21079;-57
2021/08/06 08:14:31;;;;;;;3.70;1.02;;;;;;;20.86;53.87;93272.52;1680220;83;21059;-57
2021/08/06 08:17:00;;;;;;;10.23;1.65;;;;;;;20.94;54.07;93269.11;1695311;83;21067;-56
2021/08/06 08:19:28;;;;;;;5.70;1.25;;;;;;;21.04;52.95;93270.75;1692016;82;21846;-56
2021/08/06 08:21:56;;;;;;;8.78;1.12;;;;;;;21.11;53.32;93265.20;1693766;83;21132;-59
2021/08/06 08:24:24;;;;;;;2.02;1.00;;;;;;;21.14;53.45;93266.16;1694534;83;21055;-57
2021/08/06 08:26:54;;;;;;;1.02;0.78;;;;;;;21.19;53.29;93266.02;1661690;84;21066;-58
2021/08/06 08:29:21;;;;;;;2.60;0.75;;;;;;;21.24;52.95;93262.30;1660751;84;21090;-60
2021/08/06 08:31:51;;;;;;;4.35;0.90;;;;;;;21.23;53.17;93259.41;1679653;83;21542;-59
2021/08/06 08:34:18;;;;;;;2.12;0.70;;;;;;;21.27;53.74;93256.27;1672012;83;21105;-58
2021/08/06 08:36:47;;;;;;;2.25;0.85;;;;;;;21.39;53.63;93261.63;1692332;82;21728;-58
2021/08/06 08:39:14;;;;;;;1.75;0.62;;;;;;;21.55;52.96;93260.39;1692918;82;20983;-58
2021/08/06 08:41:42;;;;;;;1.65;1.00;;;;;;;21.65;52.27;93264.94;1710964;83;21085;-58
2021/08/06 08:44:10;;;;;;;7.33;5.30;;;;;;;21.70;52.76;93280.84;1696994;83;21143;-57
2021/08/06 08:46:37;;;;;;;6.50;2.22;;;;;;;21.83;52.61;93275.75;1693070;82;21596;-58
2021/08/06 08:49:05;;;;;;;3.87;1.30;;;;;;;22.03;53.01;93276.27;1691812;82;21132;-53
2021/08/06 08:51:34;;;;;;;4.37;1.20;;;;;;;22.23;51.48;93289.48;1667741;83;21536;-57
2021/08/06 08:54:05;;;;;;;3.67;2.02;;;;;;;22.37;51.72;93283.82;1672299;83;21567;-59
2021/08/06 08:56:36;;;;;;;7.05;4.95;;;;;;;22.50;51.24;93283.66;1692509;82;21085;-61
2021/08/06 08:59:04;;;;;;;2.42;1.70;;;;;;;22.61;50.00;93287.51;1701008;82;21494;-62
2021/08/06 09:01:31;;;;;;;1.40;1.17;;;;;;;22.66;49.79;93287.97;1705962;83;21413;-64
2021/08/06 09:03:59;;;;;;;3.17;1.10;;;;;;;22.73;50.46;93284.44;1694498;82;21330;-55
2021/08/06 09:06:41;;;;;;;1.47;0.80;;;;;;;22.77;49.52;93297.42;1678408;84;20962;-58
2021/08/06 09:09:13;;;;;;;3.35;0.60;;;;;;;22.67;49.56;93296.47;1682392;82;21855;-57
2021/08/06 09:11:42;;;;;;;1.07;0.60;;;;;;;22.57;50.23;93295.55;1684749;83;21059;-57
2021/08/06 09:14:31;;;;;;;8.43;1.00;;;;;;;22.49;49.51;93294.77;1682992;82;21577;-59
2021/08/06 09:17:13;;;;;;;2.92;0.72;;;;;;;22.39;50.06;93291.05;1694141;83;21871;-58
2021/08/06 09:19:57;;;;;;;7.90;1.77;;;;;;;22.36;49.70;93293.53;1682644;82;21215;-58
2021/08/06 09:22:27;;;;;;;4.92;2.62;;;;;;;22.32;50.01;93293.13;1663545;83;22229;-58
2021/08/06 09:25:15;;;;;;;0.88;0.72;;;;;;;22.29;50.26;93303.33;1711795;81;21160;-56
2021/08/06 09:27:49;;;;;;;2.47;1.10;;;;;;;22.19;50.54;93300.32;1687996;83;21106;-57
2021/08/06 09:30:36;;;;;;;4.53;0.62;;;;;;;22.07;50.92;93304.02;1690031;82;21084;-55
2021/08/06 09:33:05;;;;;;;2.08;0.80;;;;;;;21.99;50.52;93313.70;1671645;83;21103;-62
2021/08/06 09:35:33;;;;;;;6.55;1.15;;;;;;;21.93;50.79;93320.88;1688399;83;21265;-64
2021/08/06 09:38:02;;;;;;;2.40;0.85;;;;;;;21.90;51.52;93315.63;1700579;83;21090;-56
2021/08/06 09:40:41;;;;;;;3.17;0.88;;;;;;;21.97;51.35;93317.69;1694582;82;21113;-59
2021/08/06 09:43:17;;;;;;;0.60;0.55;;;;;;;22.06;51.50;93309.50;1666366;83;21048;-56
2021/08/06 09:45:44;;;;;;;2.67;0.55;;;;;;;22.18;51.81;93307.87;1704676;82;21179;-56
2021/08/06 09:48:11;;;;;;;2.67;0.70;;;;;;;22.28;51.45;93307.44;1691545;82;21118;-57
2021/08/06 09:50:46;;;;;;;2.37;0.60;;;;;;;22.35;51.43;93303.25;1701044;82;21066;-58
2021/08/06 09:53:13;;;;;;;1.40;0.40;;;;;;;22.41;51.20;93298.23;1680373;83;20997;-57
2021/08/06 09:55:49;;;;;;;2.80;0.57;;;;;;;22.47;50.28;93300.86;1646409;85;21063;-57
2021/08/06 09:58:21;;;;;;;2.12;0.75;;;;;;;22.50;50.37;93303.28;1673517;82;21107;-60
2021/08/06 10:00:52;;;;;;;8.45;1.15;;;;;;;22.50;50.12;93294.87;1679183;83;21133;-59
2021/08/06 10:03:30;;;;;;;7.50;1.10;;;;;;;22.47;50.23;93288.25;1714084;82;21750;-60
2021/08/06 10:06:19;;;;;;;2.10;0.80;;;;;;;22.50;50.07;93280.86;1672683;83;21551;-58
2021/08/06 10:08:46;;;;;;;9.03;1.00;;;;;;;22.49;49.56;93275.16;1685655;83;22225;-60
2021/08/06 10:11:14;;;;;;;5.85;1.00;;;;;;;22.50;49.50;93289.27;1692273;83;21061;-57
2021/08/06 10:13:44;;;;;;;13.43;1.20;;;;;;;22.47;49.75;93301.59;1706003;82;21060;-57
2021/08/06 10:16:12;;;;;;;6.67;1.27;;;;;;;22.39;48.99;93296.64;1695390;83;21088;-57
2021/08/06 10:18:42;;;;;;;5.25;1.30;;;;;;;22.24;49.12;93302.83;1703502;82;21494;-56
2021/08/06 10:21:12;;;;;;;16.32;1.50;;;;;;;22.05;49.47;93314.38;1669856;83;21190;-57
2021/08/06 10:23:39;;;;;;;4.50;1.35;;;;;;;21.93;50.41;93320.88;1668612;83;21448;-57
2021/08/06 10:26:09;;;;;;;7.92;1.30;;;;;;;21.91;50.77;93313.68;1697548;83;21327;-56
2021/08/06 10:28:36;;;;;;;1.27;1.00;;;;;;;22.06;52.15;93325.67;1713500;82;21578;-57
2021/08/06 10:31:21;;;;;;;2.05;0.62;;;;;;;22.18;51.03;93317.03;1690846;82;21349;-58
2021/08/06 10:34:09;;;;;;;2.15;0.75;;;;;;;22.23;50.07;93321.70;1717571;82;21081;-57
2021/08/06 10:36:48;;;;;;;6.03;1.27;;;;;;;22.25;50.09;93324.70;1701018;82;21042;-58
2021/08/06 10:39:41;;;;;;;5.03;1.45;;;;;;;22.22;50.29;93332.06;1700408;82;22288;-57
2021/08/06 10:42:10;;;;;;;1.50;0.85;;;;;;;22.08;49.51;93338.47;1690654;82;21065;-57
2021/08/06 10:44:58;;;;;;;2.22;0.93;;;;;;;21.92;49.92;93338.22;1702288;82;21339;-60
2021/08/06 10:47:50;;;;;;;4.05;1.10;;;;;;;21.78;50.59;93347.41;1686162;82;21552;-58
2021/08/06 10:50:20;;;;;;;5.05;1.92;;;;;;;21.69;50.13;93355.58;1671094;83;20994;-57
2021/08/06 10:53:19;;;;;;;4.22;1.15;;;;;;;21.65;51.03;93351.72;1693109;82;21770;-58
2021/08/06 10:55:46;;;;;;;5.30;2.00;;;;;;;21.65;51.46;93363.58;1702214;82;21166;-59
2021/08/06 10:58:53;;;;;;;2.58;1.35;;;;;;;21.72;51.23;93360.06;1717065;82;21031;-56
2021/08/06 11:01:32;;;;;;;4.60;1.22;;;;;;;21.78;50.70;93356.44;1709082;83;21124;-57
2021/08/06 11:04:15;;;;;;;3.60;1.30;;;;;;;21.79;50.60;93369.91;1692664;83;21061;-57
2021/08/06 11:06:48;;;;;;;10.78;1.80;;;;;;;21.80;50.87;93377.66;1673321;83;22308;-56
2021/08/06 11:09:33;;;;;;;4.17;1.35;;;;;;;21.78;51.07;93376.80;1693125;82;21086;-56
2021/08/06 11:12:07;;;;;;;12.03;1.90;;;;;;;21.76;51.02;93378.01;1689588;82;22282;-57
2021/08/06 11:14:48;;;;;;;6.03;1.77;;;;;;;21.74;52.09;93386.85;1700887;83;21537;-58
2021/08/06 11:17:20;;;;;;;12.10;2.58;;;;;;;21.75;51.60;93382.75;1690789;83;21080;-57
2021/08/06 11:19:51;;;;;;;8.68;2.08;;;;;;;21.76;52.02;93387.05;1698860;83;21184;-59
2021/08/06 11:22:27;;;;;;;8.95;1.30;;;;;;;21.79;51.58;93388.10;1694361;83;20969;-57
2021/08/06 11:25:01;;;;;;;14.53;1.57;;;;;;;21.81;51.76;93380.56;1704130;82;21058;-55
2021/08/06 11:27:36;;;;;;;6.50;1.40;;;;;;;;;;1692500;82;21593;-57
2021/08/06 11:30:13;;;;;;;4.40;1.20;;;;;;;21.90;51.20;93385.63;1678113;83;21019;-55
2021/08/06 11:32:53;;;;;;;4.72;1.35;;;;;;;21.95;51.36;93384.08;1691930;82;22250;-58
2021/08/06 11:35:26;;;;;;;3.52;1.85;;;;;;;21.96;51.34;93384.81;1671595;84;21147;-58
2021/08/06 11:38:06;;;;;;;7.75;2.37;;;;;;;21.95;51.24;93388.91;1637863;85;21111;-55
2021/08/06 11:40:42;;;;;;;5.97;3.22;;;;;;;22.03;51.25;93386.25;1658928;84;21045;-58
2021/08/06 11:43:23;;;;;;;5.55;1.42;;;;;;;22.17;51.05;93378.58;1659984;84;21109;-58
2021/08/06 11:45:56;;;;;;;12.30;2.45;;;;;;;22.55;49.87;93383.67;1638015;84;21181;-59
2021/08/06 11:48:23;;;;;;;7.05;1.50;;;;;;;23.27;49.03;93382.73;1686762;83;21183;-58
2021/08/06 11:50:59;;;;;;;8.28;1.50;;;;;;;23.51;47.92;93384.30;1690094;82;21320;-63